sensor_id;sensor_type;location;lat;lon;timestamp;temperature;humidity
34646;DHT22;20857;47.808;12.482;2024-01-16T00:01:05;-1.40;99.90
34646;DHT22;20857;47.808;12.482;2024-01-16T00:03:31;-1.50;99.90
34646;DHT22;20857;47.808;12.482;2024-01-16T00:05:57;-1.50;99.90
34646;DHT22;20857;47.808;12.482;2024-01-16T00:08:23;-1.40;99.90
34646;DHT22;20857;47.808;12.482;2024-01-16T00:10:48;-1.40;99.90
34646;DHT22;20857;47.808;12.482;2024-01-16T00:13:14;-1.40;99.90
34646;DHT22;20857;47.808;12.482;2024-01-16T00:15:39;-1.40;99.90
34646;DHT22;20857;47.808;12.482;2024-01-16T00:18:07;-1.50;99.90
34646;DHT22;20857;47.808;12.482;2024-01-16T00:20:33;-1.50;99.90
34646;DHT22;20857;47.808;12.482;2024-01-16T00:22:59;-1.50;99.90
34646;DHT22;20857;47.808;12.482;2024-01-16T00:25:25;-1.50;99.90
34646;DHT22;20857;47.808;12.482;2024-01-16T00:27:51;-1.60;99.90
34646;DHT22;20857;47.808;12.482;2024-01-16T00:30:17;-1.60;99.90
34646;DHT22;20857;47.808;12.482;2024-01-16T00:32:43;-1.70;99.90
34646;DHT22;20857;47.808;12.482;2024-01-16T00:35:09;-1.70;99.90
34646;DHT22;20857;47.808;12.482;2024-01-16T00:37:36;-1.80;99.90
34646;DHT22;20857;47.808;12.482;2024-01-16T00:40:03;-1.80;99.90
34646;DHT22;20857;47.808;12.482;2024-01-16T00:42:33;-1.80;99.90
34646;DHT22;20857;47.808;12.482;2024-01-16T00:44:58;-1.80;99.90
34646;DHT22;20857;47.808;12.482;2024-01-16T00:47:24;-1.80;99.90
34646;DHT22;20857;47.808;12.482;2024-01-16T00:49:50;-1.60;99.90
34646;DHT22;20857;47.808;12.482;2024-01-16T00:52:15;-1.60;99.90
34646;DHT22;20857;47.808;12.482;2024-01-16T00:54:42;-1.50;99.90
34646;DHT22;20857;47.808;12.482;2024-01-16T00:57:08;-1.50;99.90
34646;DHT22;20857;47.808;12.482;2024-01-16T00:59:34;-1.50;99.90
34646;DHT22;20857;47.808;12.482;2024-01-16T01:01:59;-1.40;99.90
34646;DHT22;20857;47.808;12.482;2024-01-16T01:04:25;-1.40;99.90
34646;DHT22;20857;47.808;12.482;2024-01-16T01:06:50;-1.40;99.90
34646;DHT22;20857;47.808;12.482;2024-01-16T01:09:16;-1.40;99.90
34646;DHT22;20857;47.808;12.482;2024-01-16T01:11:42;-1.40;99.90
34646;DHT22;20857;47.808;12.482;2024-01-16T01:14:08;-1.40;99.90
34646;DHT22;20857;47.808;12.482;2024-01-16T01:16:34;-1.40;99.90
34646;DHT22;20857;47.808;12.482;2024-01-16T01:18:59;-1.40;99.90
34646;DHT22;20857;47.808;12.482;2024-01-16T01:21:25;-1.40;99.90
34646;DHT22;20857;47.808;12.482;2024-01-16T01:23:50;-1.30;99.90
34646;DHT22;20857;47.808;12.482;2024-01-16T01:26:16;-1.20;99.90
34646;DHT22;20857;47.808;12.482;2024-01-16T01:28:45;-1.30;99.90
34646;DHT22;20857;47.808;12.482;2024-01-16T01:31:12;-1.20;99.90
34646;DHT22;20857;47.808;12.482;2024-01-16T01:33:38;-1.30;99.90
34646;DHT22;20857;47.808;12.482;2024-01-16T01:36:04;-1.20;99.90
34646;DHT22;20857;47.808;12.482;2024-01-16T01:38:30;-1.20;99.90
34646;DHT22;20857;47.808;12.482;2024-01-16T01:40:56;-1.20;99.90
34646;DHT22;20857;47.808;12.482;2024-01-16T01:43:25;-1.20;99.90
34646;DHT22;20857;47.808;12.482;2024-01-16T01:46:18;-1.30;99.90
34646;DHT22;20857;47.808;12.482;2024-01-16T01:48:46;-1.30;99.90
34646;DHT22;20857;47.808;12.482;2024-01-16T01:51:14;-1.20;99.90
34646;DHT22;20857;47.808;12.482;2024-01-16T01:53:42;-1.20;99.90
34646;DHT22;20857;47.808;12.482;2024-01-16T01:56:11;-1.20;99.90
34646;DHT22;20857;47.808;12.482;2024-01-16T01:58:37;-1.20;99.90
34646;DHT22;20857;47.808;12.482;2024-01-16T02:01:04;-1.20;99.90
34646;DHT22;20857;47.808;12.482;2024-01-16T02:03:45;-1.20;99.90
34646;DHT22;20857;47.808;12.482;2024-01-16T02:06:11;-1.20;99.90
34646;DHT22;20857;47.808;12.482;2024-01-16T02:08:38;-1.20;99.90
34646;DHT22;20857;47.808;12.482;2024-01-16T02:11:05;-1.20;99.90
34646;DHT22;20857;47.808;12.482;2024-01-16T02:13:31;-1.20;99.90
34646;DHT22;20857;47.808;12.482;2024-01-16T02:15:57;-1.20;99.90
34646;DHT22;20857;47.808;12.482;2024-01-16T02:18:22;-1.20;99.90
34646;DHT22;20857;47.808;12.482;2024-01-16T02:20:48;-1.20;99.90
34646;DHT22;20857;47.808;12.482;2024-01-16T02:23:14;-1.20;99.90
34646;DHT22;20857;47.808;12.482;2024-01-16T02:25:43;-1.20;99.90
34646;DHT22;20857;47.808;12.482;2024-01-16T02:28:10;-1.30;99.90
34646;DHT22;20857;47.808;12.482;2024-01-16T02:30:36;-1.30;99.90
34646;DHT22;20857;47.808;12.482;2024-01-16T02:33:01;-1.20;99.90
34646;DHT22;20857;47.808;12.482;2024-01-16T02:35:29;-1.20;99.90
34646;DHT22;20857;47.808;12.482;2024-01-16T02:37:54;-1.30;99.90
34646;DHT22;20857;47.808;12.482;2024-01-16T02:40:20;-1.30;99.90
34646;DHT22;20857;47.808;12.482;2024-01-16T02:42:45;-1.30;99.90
34646;DHT22;20857;47.808;12.482;2024-01-16T02:45:11;-1.20;99.90
34646;DHT22;20857;47.808;12.482;2024-01-16T02:47:37;-1.20;99.90
34646;DHT22;20857;47.808;12.482;2024-01-16T02:50:03;-1.30;99.90
34646;DHT22;20857;47.808;12.482;2024-01-16T02:52:29;-1.30;99.90
34646;DHT22;20857;47.808;12.482;2024-01-16T02:54:54;-1.40;99.90
34646;DHT22;20857;47.808;12.482;2024-01-16T02:57:20;-1.50;99.90
34646;DHT22;20857;47.808;12.482;2024-01-16T02:59:46;-1.60;99.90
34646;DHT22;20857;47.808;12.482;2024-01-16T03:02:11;-1.70;99.90
34646;DHT22;20857;47.808;12.482;2024-01-16T03:04:37;-1.80;99.90
34646;DHT22;20857;47.808;12.482;2024-01-16T03:07:03;-1.80;99.90
34646;DHT22;20857;47.808;12.482;2024-01-16T03:09:29;-1.90;99.90
34646;DHT22;20857;47.808;12.482;2024-01-16T03:11:55;-1.90;99.90
34646;DHT22;20857;47.808;12.482;2024-01-16T03:14:20;-2.00;99.90
34646;DHT22;20857;47.808;12.482;2024-01-16T03:16:46;-2.00;99.90
34646;DHT22;20857;47.808;12.482;2024-01-16T03:19:12;-2.00;99.90
34646;DHT22;20857;47.808;12.482;2024-01-16T03:21:38;-2.10;99.90
34646;DHT22;20857;47.808;12.482;2024-01-16T03:24:04;-2.10;99.90
34646;DHT22;20857;47.808;12.482;2024-01-16T03:26:31;-2.10;99.90
34646;DHT22;20857;47.808;12.482;2024-01-16T03:28:57;-2.10;99.90
34646;DHT22;20857;47.808;12.482;2024-01-16T03:31:23;-2.00;99.90
34646;DHT22;20857;47.808;12.482;2024-01-16T03:33:48;-2.00;99.90
34646;DHT22;20857;47.808;12.482;2024-01-16T03:36:14;-1.90;99.90
34646;DHT22;20857;47.808;12.482;2024-01-16T03:38:42;-1.90;99.90
34646;DHT22;20857;47.808;12.482;2024-01-16T03:41:08;-2.00;99.90
34646;DHT22;20857;47.808;12.482;2024-01-16T03:43:34;-2.00;99.90
34646;DHT22;20857;47.808;12.482;2024-01-16T03:46:00;-2.00;99.90
34646;DHT22;20857;47.808;12.482;2024-01-16T03:48:26;-2.00;99.90
34646;DHT22;20857;47.808;12.482;2024-01-16T03:50:51;-2.10;99.90
34646;DHT22;20857;47.808;12.482;2024-01-16T03:53:17;-2.20;99.90
34646;DHT22;20857;47.808;12.482;2024-01-16T03:55:42;-2.30;99.90
34646;DHT22;20857;47.808;12.482;2024-01-16T03:58:08;-2.30;99.90
34646;DHT22;20857;47.808;12.482;2024-01-16T04:00:34;-2.30;99.90
34646;DHT22;20857;47.808;12.482;2024-01-16T04:03:00;-2.20;99.90
34646;DHT22;20857;47.808;12.482;2024-01-16T04:05:25;-2.30;99.90
34646;DHT22;20857;47.808;12.482;2024-01-16T04:07:51;-2.30;99.90
34646;DHT22;20857;47.808;12.482;2024-01-16T04:10:17;-2.40;99.90
34646;DHT22;20857;47.808;12.482;2024-01-16T04:12:43;-2.30;99.90
34646;DHT22;20857;47.808;12.482;2024-01-16T04:15:09;-2.30;99.90
34646;DHT22;20857;47.808;12.482;2024-01-16T04:17:34;-2.30;99.90
34646;DHT22;20857;47.808;12.482;2024-01-16T04:20:00;-2.40;99.90
34646;DHT22;20857;47.808;12.482;2024-01-16T04:22:25;-2.50;99.90
34646;DHT22;20857;47.808;12.482;2024-01-16T04:24:51;-2.60;99.90
34646;DHT22;20857;47.808;12.482;2024-01-16T04:27:17;-2.60;99.90
34646;DHT22;20857;47.808;12.482;2024-01-16T04:29:42;-2.70;99.90
34646;DHT22;20857;47.808;12.482;2024-01-16T04:32:08;-2.80;99.90
34646;DHT22;20857;47.808;12.482;2024-01-16T04:34:34;-2.90;99.90
34646;DHT22;20857;47.808;12.482;2024-01-16T04:37:00;-2.90;99.90
34646;DHT22;20857;47.808;12.482;2024-01-16T04:39:25;-2.90;99.90
34646;DHT22;20857;47.808;12.482;2024-01-16T04:41:51;-2.90;99.90
34646;DHT22;20857;47.808;12.482;2024-01-16T04:44:16;-3.00;99.90
34646;DHT22;20857;47.808;12.482;2024-01-16T04:46:42;-3.10;99.90
34646;DHT22;20857;47.808;12.482;2024-01-16T04:49:08;-3.10;99.90
34646;DHT22;20857;47.808;12.482;2024-01-16T04:51:34;-3.20;99.90
34646;DHT22;20857;47.808;12.482;2024-01-16T04:53:59;-3.20;99.90
34646;DHT22;20857;47.808;12.482;2024-01-16T04:56:25;-3.30;99.90
34646;DHT22;20857;47.808;12.482;2024-01-16T04:58:50;-3.30;99.90
34646;DHT22;20857;47.808;12.482;2024-01-16T05:01:17;-3.40;99.90
34646;DHT22;20857;47.808;12.482;2024-01-16T05:03:43;-3.40;99.90
34646;DHT22;20857;47.808;12.482;2024-01-16T05:06:13;-3.40;99.90
34646;DHT22;20857;47.808;12.482;2024-01-16T05:08:40;-3.50;99.90
34646;DHT22;20857;47.808;12.482;2024-01-16T05:11:05;-3.50;99.90
34646;DHT22;20857;47.808;12.482;2024-01-16T05:13:31;-3.60;99.90
34646;DHT22;20857;47.808;12.482;2024-01-16T05:15:57;-3.60;99.90
34646;DHT22;20857;47.808;12.482;2024-01-16T05:18:22;-3.70;99.90
34646;DHT22;20857;47.808;12.482;2024-01-16T05:20:48;-3.70;99.90
34646;DHT22;20857;47.808;12.482;2024-01-16T05:23:13;-3.70;99.90
34646;DHT22;20857;47.808;12.482;2024-01-16T05:25:39;-3.60;99.90
34646;DHT22;20857;47.808;12.482;2024-01-16T05:28:04;-3.60;99.90
34646;DHT22;20857;47.808;12.482;2024-01-16T05:30:30;-3.60;99.90
34646;DHT22;20857;47.808;12.482;2024-01-16T05:32:56;-3.70;99.90
34646;DHT22;20857;47.808;12.482;2024-01-16T05:35:26;-3.70;99.90
34646;DHT22;20857;47.808;12.482;2024-01-16T05:37:52;-3.80;99.90
34646;DHT22;20857;47.808;12.482;2024-01-16T05:40:17;-3.90;99.90
34646;DHT22;20857;47.808;12.482;2024-01-16T05:42:43;-3.80;99.90
34646;DHT22;20857;47.808;12.482;2024-01-16T05:45:09;-3.70;99.90
34646;DHT22;20857;47.808;12.482;2024-01-16T05:47:34;-3.70;99.90
34646;DHT22;20857;47.808;12.482;2024-01-16T05:50:00;-3.80;99.90
34646;DHT22;20857;47.808;12.482;2024-01-16T05:52:25;-3.80;99.90
34646;DHT22;20857;47.808;12.482;2024-01-16T05:54:51;-3.90;99.90
34646;DHT22;20857;47.808;12.482;2024-01-16T05:57:17;-4.00;99.90
34646;DHT22;20857;47.808;12.482;2024-01-16T05:59:42;-4.10;99.90
34646;DHT22;20857;47.808;12.482;2024-01-16T06:02:08;-4.10;99.90
34646;DHT22;20857;47.808;12.482;2024-01-16T06:04:34;-4.10;99.90
34646;DHT22;20857;47.808;12.482;2024-01-16T06:06:59;-4.00;99.90
34646;DHT22;20857;47.808;12.482;2024-01-16T06:09:25;-4.00;99.90
34646;DHT22;20857;47.808;12.482;2024-01-16T06:11:50;-4.00;99.90
34646;DHT22;20857;47.808;12.482;2024-01-16T06:14:16;-4.00;99.90
34646;DHT22;20857;47.808;12.482;2024-01-16T06:16:47;-4.00;99.90
34646;DHT22;20857;47.808;12.482;2024-01-16T06:19:13;-3.90;99.90
34646;DHT22;20857;47.808;12.482;2024-01-16T06:21:38;-3.90;99.90
34646;DHT22;20857;47.808;12.482;2024-01-16T06:24:05;-3.90;99.90
34646;DHT22;20857;47.808;12.482;2024-01-16T06:26:30;-3.90;99.90
34646;DHT22;20857;47.808;12.482;2024-01-16T06:28:57;-3.80;99.90
34646;DHT22;20857;47.808;12.482;2024-01-16T06:31:22;-3.80;99.90
34646;DHT22;20857;47.808;12.482;2024-01-16T06:33:50;-3.90;99.90
34646;DHT22;20857;47.808;12.482;2024-01-16T06:36:15;-3.90;99.90
34646;DHT22;20857;47.808;12.482;2024-01-16T06:38:41;-4.00;99.90
34646;DHT22;20857;47.808;12.482;2024-01-16T06:41:07;-4.00;99.90
34646;DHT22;20857;47.808;12.482;2024-01-16T06:43:32;-4.00;99.90
34646;DHT22;20857;47.808;12.482;2024-01-16T06:45:58;-4.00;99.90
34646;DHT22;20857;47.808;12.482;2024-01-16T06:48:25;-4.00;99.90
34646;DHT22;20857;47.808;12.482;2024-01-16T06:50:51;-4.10;99.90
34646;DHT22;20857;47.808;12.482;2024-01-16T06:53:16;-4.10;99.90
34646;DHT22;20857;47.808;12.482;2024-01-16T06:55:42;-4.10;99.90
34646;DHT22;20857;47.808;12.482;2024-01-16T06:58:08;-4.10;99.90
34646;DHT22;20857;47.808;12.482;2024-01-16T07:00:35;-4.10;99.90
34646;DHT22;20857;47.808;12.482;2024-01-16T07:03:00;-4.20;99.90
34646;DHT22;20857;47.808;12.482;2024-01-16T07:05:26;-4.20;99.90
34646;DHT22;20857;47.808;12.482;2024-01-16T07:07:51;-4.20;99.90
34646;DHT22;20857;47.808;12.482;2024-01-16T07:10:17;-4.20;99.90
34646;DHT22;20857;47.808;12.482;2024-01-16T07:12:47;-4.10;99.90
34646;DHT22;20857;47.808;12.482;2024-01-16T07:15:14;-4.00;99.90
34646;DHT22;20857;47.808;12.482;2024-01-16T07:17:40;-3.90;99.90
34646;DHT22;20857;47.808;12.482;2024-01-16T07:20:06;-3.70;99.90
34646;DHT22;20857;47.808;12.482;2024-01-16T07:22:33;-3.50;99.90
34646;DHT22;20857;47.808;12.482;2024-01-16T07:25:00;-3.20;99.90
34646;DHT22;20857;47.808;12.482;2024-01-16T07:27:25;-3.10;99.90
34646;DHT22;20857;47.808;12.482;2024-01-16T07:29:51;-3.00;99.90
34646;DHT22;20857;47.808;12.482;2024-01-16T07:32:17;-2.90;99.90
34646;DHT22;20857;47.808;12.482;2024-01-16T07:34:42;-2.70;99.90
34646;DHT22;20857;47.808;12.482;2024-01-16T07:37:08;-2.60;99.90
34646;DHT22;20857;47.808;12.482;2024-01-16T07:39:34;-2.50;99.90
34646;DHT22;20857;47.808;12.482;2024-01-16T07:42:00;-2.30;99.90
34646;DHT22;20857;47.808;12.482;2024-01-16T07:44:25;-2.20;99.90
34646;DHT22;20857;47.808;12.482;2024-01-16T07:46:51;-2.00;99.90
34646;DHT22;20857;47.808;12.482;2024-01-16T07:49:17;-1.90;99.90
34646;DHT22;20857;47.808;12.482;2024-01-16T07:51:42;-1.80;99.90
34646;DHT22;20857;47.808;12.482;2024-01-16T07:54:09;-1.70;99.90
34646;DHT22;20857;47.808;12.482;2024-01-16T07:56:36;-1.60;99.90
34646;DHT22;20857;47.808;12.482;2024-01-16T07:59:02;-1.50;99.90
34646;DHT22;20857;47.808;12.482;2024-01-16T08:01:29;-1.40;99.90
34646;DHT22;20857;47.808;12.482;2024-01-16T08:03:55;-1.40;99.90
34646;DHT22;20857;47.808;12.482;2024-01-16T08:06:21;-1.30;99.90
34646;DHT22;20857;47.808;12.482;2024-01-16T08:08:47;-1.30;99.90
34646;DHT22;20857;47.808;12.482;2024-01-16T08:11:14;-1.20;99.90
34646;DHT22;20857;47.808;12.482;2024-01-16T08:13:40;-1.10;99.90
34646;DHT22;20857;47.808;12.482;2024-01-16T08:16:05;-0.90;99.90
34646;DHT22;20857;47.808;12.482;2024-01-16T08:18:31;-0.70;99.90
34646;DHT22;20857;47.808;12.482;2024-01-16T08:20:57;-0.70;99.90
34646;DHT22;20857;47.808;12.482;2024-01-16T08:23:22;-0.50;99.90
34646;DHT22;20857;47.808;12.482;2024-01-16T08:25:48;-0.30;99.90
34646;DHT22;20857;47.808;12.482;2024-01-16T08:28:14;-0.20;99.90
34646;DHT22;20857;47.808;12.482;2024-01-16T08:30:40;-0.10;99.90
34646;DHT22;20857;47.808;12.482;2024-01-16T08:33:06;-0.10;99.90
34646;DHT22;20857;47.808;12.482;2024-01-16T08:35:32;0.10;99.90
34646;DHT22;20857;47.808;12.482;2024-01-16T08:37:58;0.10;99.90
34646;DHT22;20857;47.808;12.482;2024-01-16T08:40:24;0.20;99.90
34646;DHT22;20857;47.808;12.482;2024-01-16T08:42:50;0.30;99.90
34646;DHT22;20857;47.808;12.482;2024-01-16T08:45:20;0.40;99.90
34646;DHT22;20857;47.808;12.482;2024-01-16T08:47:46;0.50;99.90
34646;DHT22;20857;47.808;12.482;2024-01-16T08:50:12;0.50;99.90
34646;DHT22;20857;47.808;12.482;2024-01-16T08:52:38;0.60;99.90
34646;DHT22;20857;47.808;12.482;2024-01-16T08:55:04;0.70;99.90
34646;DHT22;20857;47.808;12.482;2024-01-16T08:57:29;0.80;99.90
34646;DHT22;20857;47.808;12.482;2024-01-16T08:59:55;0.70;99.90
34646;DHT22;20857;47.808;12.482;2024-01-16T09:02:21;0.80;99.90
34646;DHT22;20857;47.808;12.482;2024-01-16T09:04:47;0.80;99.90
34646;DHT22;20857;47.808;12.482;2024-01-16T09:07:18;1.00;99.90
34646;DHT22;20857;47.808;12.482;2024-01-16T09:09:44;1.10;99.90
34646;DHT22;20857;47.808;12.482;2024-01-16T09:12:10;1.50;99.90
34646;DHT22;20857;47.808;12.482;2024-01-16T09:14:36;1.80;99.90
34646;DHT22;20857;47.808;12.482;2024-01-16T09:17:02;2.10;99.90
34646;DHT22;20857;47.808;12.482;2024-01-16T09:19:28;2.40;99.90
34646;DHT22;20857;47.808;12.482;2024-01-16T09:21:55;2.60;99.90
34646;DHT22;20857;47.808;12.482;2024-01-16T09:24:21;2.40;99.90
34646;DHT22;20857;47.808;12.482;2024-01-16T09:26:46;2.30;99.90
34646;DHT22;20857;47.808;12.482;2024-01-16T09:29:12;2.60;99.90
34646;DHT22;20857;47.808;12.482;2024-01-16T09:31:40;2.40;99.90
34646;DHT22;20857;47.808;12.482;2024-01-16T09:34:05;2.60;99.90
34646;DHT22;20857;47.808;12.482;2024-01-16T09:36:31;2.70;99.90
34646;DHT22;20857;47.808;12.482;2024-01-16T09:38:57;2.60;99.90
34646;DHT22;20857;47.808;12.482;2024-01-16T09:41:23;2.60;99.90
34646;DHT22;20857;47.808;12.482;2024-01-16T09:43:50;2.50;99.90
34646;DHT22;20857;47.808;12.482;2024-01-16T09:46:17;2.70;99.90
34646;DHT22;20857;47.808;12.482;2024-01-16T09:48:46;2.70;99.90
34646;DHT22;20857;47.808;12.482;2024-01-16T09:51:12;2.90;99.90
34646;DHT22;20857;47.808;12.482;2024-01-16T09:53:42;2.90;99.90
34646;DHT22;20857;47.808;12.482;2024-01-16T09:56:13;2.70;99.90
34646;DHT22;20857;47.808;12.482;2024-01-16T09:58:40;2.80;99.90
34646;DHT22;20857;47.808;12.482;2024-01-16T10:01:06;2.40;99.90
34646;DHT22;20857;47.808;12.482;2024-01-16T10:03:34;2.50;99.90
34646;DHT22;20857;47.808;12.482;2024-01-16T10:06:04;2.50;99.90
34646;DHT22;20857;47.808;12.482;2024-01-16T10:08:31;2.50;99.90
34646;DHT22;20857;47.808;12.482;2024-01-16T10:10:57;2.50;99.90
34646;DHT22;20857;47.808;12.482;2024-01-16T10:13:23;2.80;99.90
34646;DHT22;20857;47.808;12.482;2024-01-16T10:15:50;2.70;99.90
34646;DHT22;20857;47.808;12.482;2024-01-16T10:18:26;2.80;99.90
34646;DHT22;20857;47.808;12.482;2024-01-16T10:20:53;2.90;99.60
34646;DHT22;20857;47.808;12.482;2024-01-16T10:23:28;3.00;99.90
34646;DHT22;20857;47.808;12.482;2024-01-16T10:26:10;3.10;99.90
34646;DHT22;20857;47.808;12.482;2024-01-16T10:28:37;3.20;98.50
34646;DHT22;20857;47.808;12.482;2024-01-16T10:31:13;3.20;97.40
34646;DHT22;20857;47.808;12.482;2024-01-16T10:33:41;3.20;97.30
34646;DHT22;20857;47.808;12.482;2024-01-16T10:36:16;3.40;98.00
34646;DHT22;20857;47.808;12.482;2024-01-16T10:38:45;3.50;98.00
34646;DHT22;20857;47.808;12.482;2024-01-16T10:43:37;3.50;97.70
34646;DHT22;20857;47.808;12.482;2024-01-16T10:46:13;3.30;97.30
34646;DHT22;20857;47.808;12.482;2024-01-16T10:48:44;3.30;97.60
34646;DHT22;20857;47.808;12.482;2024-01-16T10:51:14;3.30;97.70
34646;DHT22;20857;47.808;12.482;2024-01-16T10:53:43;3.50;97.20
34646;DHT22;20857;47.808;12.482;2024-01-16T10:56:13;3.40;96.30
34646;DHT22;20857;47.808;12.482;2024-01-16T10:58:41;3.20;96.70
34646;DHT22;20857;47.808;12.482;2024-01-16T11:01:10;3.20;96.10
34646;DHT22;20857;47.808;12.482;2024-01-16T11:06:08;3.10;95.80
34646;DHT22;20857;47.808;12.482;2024-01-16T11:08:38;3.10;96.10
34646;DHT22;20857;47.808;12.482;2024-01-16T11:11:04;3.00;96.30
34646;DHT22;20857;47.808;12.482;2024-01-16T11:13:34;2.90;95.80
34646;DHT22;20857;47.808;12.482;2024-01-16T11:16:00;2.90;95.70
34646;DHT22;20857;47.808;12.482;2024-01-16T11:18:27;2.90;95.70
34646;DHT22;20857;47.808;12.482;2024-01-16T11:20:56;2.80;95.50
34646;DHT22;20857;47.808;12.482;2024-01-16T11:23:22;2.80;95.50
34646;DHT22;20857;47.808;12.482;2024-01-16T11:25:49;2.80;96.00
34646;DHT22;20857;47.808;12.482;2024-01-16T11:28:14;2.80;96.20
34646;DHT22;20857;47.808;12.482;2024-01-16T11:30:42;2.90;96.20
34646;DHT22;20857;47.808;12.482;2024-01-16T11:35:59;2.80;97.00
34646;DHT22;20857;47.808;12.482;2024-01-16T11:38:26;3.10;96.20
34646;DHT22;20857;47.808;12.482;2024-01-16T11:40:55;3.00;95.80
34646;DHT22;20857;47.808;12.482;2024-01-16T11:46:08;2.80;95.70
34646;DHT22;20857;47.808;12.482;2024-01-16T11:48:34;2.60;96.00
34646;DHT22;20857;47.808;12.482;2024-01-16T11:51:00;2.40;96.20
34646;DHT22;20857;47.808;12.482;2024-01-16T11:53:46;2.50;96.10
34646;DHT22;20857;47.808;12.482;2024-01-16T11:59:27;2.60;96.20
34646;DHT22;20857;47.808;12.482;2024-01-16T12:02:02;2.40;96.30
34646;DHT22;20857;47.808;12.482;2024-01-16T12:04:30;2.60;97.20
34646;DHT22;20857;47.808;12.482;2024-01-16T12:07:00;2.80;97.20
34646;DHT22;20857;47.808;12.482;2024-01-16T12:09:27;2.80;97.10
34646;DHT22;20857;47.808;12.482;2024-01-16T12:12:01;2.90;96.30
34646;DHT22;20857;47.808;12.482;2024-01-16T12:14:27;2.80;96.40
34646;DHT22;20857;47.808;12.482;2024-01-16T12:17:07;3.00;97.20
34646;DHT22;20857;47.808;12.482;2024-01-16T12:19:33;3.10;96.60
34646;DHT22;20857;47.808;12.482;2024-01-16T12:22:00;3.10;96.30
34646;DHT22;20857;47.808;12.482;2024-01-16T12:24:26;3.30;96.60
34646;DHT22;20857;47.808;12.482;2024-01-16T12:26:51;3.40;96.70
34646;DHT22;20857;47.808;12.482;2024-01-16T12:29:18;3.20;96.70
34646;DHT22;20857;47.808;12.482;2024-01-16T12:31:43;3.30;96.90
34646;DHT22;20857;47.808;12.482;2024-01-16T12:34:09;3.30;97.50
34646;DHT22;20857;47.808;12.482;2024-01-16T12:36:35;3.30;96.40
34646;DHT22;20857;47.808;12.482;2024-01-16T12:39:02;3.10;96.70
34646;DHT22;20857;47.808;12.482;2024-01-16T12:41:32;3.00;96.90
34646;DHT22;20857;47.808;12.482;2024-01-16T12:44:00;3.10;97.80
34646;DHT22;20857;47.808;12.482;2024-01-16T12:46:25;3.20;96.60
34646;DHT22;20857;47.808;12.482;2024-01-16T12:48:51;3.10;96.80
34646;DHT22;20857;47.808;12.482;2024-01-16T12:51:23;3.10;96.80
34646;DHT22;20857;47.808;12.482;2024-01-16T12:53:49;3.00;97.20
34646;DHT22;20857;47.808;12.482;2024-01-16T12:56:18;2.90;96.60
34646;DHT22;20857;47.808;12.482;2024-01-16T12:58:45;2.90;97.90
34646;DHT22;20857;47.808;12.482;2024-01-16T13:01:24;2.80;97.70
34646;DHT22;20857;47.808;12.482;2024-01-16T13:03:51;2.90;97.10
34646;DHT22;20857;47.808;12.482;2024-01-16T13:06:18;2.80;97.60
34646;DHT22;20857;47.808;12.482;2024-01-16T13:08:48;3.00;97.60
34646;DHT22;20857;47.808;12.482;2024-01-16T13:11:14;3.00;97.30
34646;DHT22;20857;47.808;12.482;2024-01-16T13:13:46;3.00;97.80
34646;DHT22;20857;47.808;12.482;2024-01-16T13:16:17;2.80;97.80
34646;DHT22;20857;47.808;12.482;2024-01-16T13:18:43;2.60;97.20
34646;DHT22;20857;47.808;12.482;2024-01-16T13:21:08;2.40;97.20
34646;DHT22;20857;47.808;12.482;2024-01-16T13:23:35;2.30;97.20
34646;DHT22;20857;47.808;12.482;2024-01-16T13:26:00;2.20;97.40
34646;DHT22;20857;47.808;12.482;2024-01-16T13:28:29;2.10;97.50
34646;DHT22;20857;47.808;12.482;2024-01-16T13:30:55;2.00;97.80
34646;DHT22;20857;47.808;12.482;2024-01-16T13:33:25;2.00;97.40
34646;DHT22;20857;47.808;12.482;2024-01-16T13:35:54;1.80;98.30
34646;DHT22;20857;47.808;12.482;2024-01-16T13:38:20;1.90;98.50
34646;DHT22;20857;47.808;12.482;2024-01-16T13:40:46;2.00;98.30
34646;DHT22;20857;47.808;12.482;2024-01-16T13:43:12;2.10;98.20
34646;DHT22;20857;47.808;12.482;2024-01-16T13:45:38;2.30;98.30
34646;DHT22;20857;47.808;12.482;2024-01-16T13:48:04;2.30;97.60
34646;DHT22;20857;47.808;12.482;2024-01-16T13:50:32;2.30;98.70
34646;DHT22;20857;47.808;12.482;2024-01-16T13:52:58;2.30;99.30
34646;DHT22;20857;47.808;12.482;2024-01-16T13:55:24;2.20;98.90
34646;DHT22;20857;47.808;12.482;2024-01-16T13:57:50;2.20;98.60
34646;DHT22;20857;47.808;12.482;2024-01-16T14:00:16;1.90;98.90
34646;DHT22;20857;47.808;12.482;2024-01-16T14:02:46;1.90;99.50
34646;DHT22;20857;47.808;12.482;2024-01-16T14:05:13;1.60;99.90
34646;DHT22;20857;47.808;12.482;2024-01-16T14:07:41;1.40;99.90
34646;DHT22;20857;47.808;12.482;2024-01-16T14:10:10;1.20;99.90
34646;DHT22;20857;47.808;12.482;2024-01-16T14:12:41;1.10;99.90
34646;DHT22;20857;47.808;12.482;2024-01-16T14:15:11;1.10;99.90
34646;DHT22;20857;47.808;12.482;2024-01-16T14:17:52;1.00;99.90
34646;DHT22;20857;47.808;12.482;2024-01-16T14:20:20;1.00;99.90
34646;DHT22;20857;47.808;12.482;2024-01-16T14:22:50;0.90;99.90
34646;DHT22;20857;47.808;12.482;2024-01-16T14:25:17;0.90;99.90
34646;DHT22;20857;47.808;12.482;2024-01-16T14:28:04;0.90;99.90
34646;DHT22;20857;47.808;12.482;2024-01-16T14:30:34;0.90;99.90
34646;DHT22;20857;47.808;12.482;2024-01-16T14:33:00;1.00;99.90
34646;DHT22;20857;47.808;12.482;2024-01-16T14:35:27;0.90;99.90
34646;DHT22;20857;47.808;12.482;2024-01-16T14:37:53;0.80;99.90
34646;DHT22;20857;47.808;12.482;2024-01-16T14:40:18;0.80;99.90
34646;DHT22;20857;47.808;12.482;2024-01-16T14:42:51;0.80;99.90
34646;DHT22;20857;47.808;12.482;2024-01-16T14:45:20;0.70;99.90
34646;DHT22;20857;47.808;12.482;2024-01-16T14:47:46;0.70;99.90
34646;DHT22;20857;47.808;12.482;2024-01-16T14:50:12;0.50;99.90
34646;DHT22;20857;47.808;12.482;2024-01-16T14:52:39;0.40;99.90
34646;DHT22;20857;47.808;12.482;2024-01-16T14:55:06;0.40;99.90
34646;DHT22;20857;47.808;12.482;2024-01-16T14:57:34;0.30;99.90
34646;DHT22;20857;47.808;12.482;2024-01-16T15:00:08;0.40;99.90
34646;DHT22;20857;47.808;12.482;2024-01-16T15:02:48;0.40;99.90
34646;DHT22;20857;47.808;12.482;2024-01-16T15:05:15;0.50;99.90
34646;DHT22;20857;47.808;12.482;2024-01-16T15:07:41;0.50;99.90
34646;DHT22;20857;47.808;12.482;2024-01-16T15:10:08;0.40;99.90
34646;DHT22;20857;47.808;12.482;2024-01-16T15:12:36;0.40;99.90
34646;DHT22;20857;47.808;12.482;2024-01-16T15:15:02;0.30;99.90
34646;DHT22;20857;47.808;12.482;2024-01-16T15:17:30;0.30;99.90
34646;DHT22;20857;47.808;12.482;2024-01-16T15:19:57;0.20;99.90
34646;DHT22;20857;47.808;12.482;2024-01-16T15:22:22;0.10;99.90
34646;DHT22;20857;47.808;12.482;2024-01-16T15:24:48;0.10;99.90
34646;DHT22;20857;47.808;12.482;2024-01-16T15:27:13;0.00;99.90
34646;DHT22;20857;47.808;12.482;2024-01-16T15:29:39;-0.10;99.90
34646;DHT22;20857;47.808;12.482;2024-01-16T15:32:05;-0.20;99.90
34646;DHT22;20857;47.808;12.482;2024-01-16T15:34:31;-0.30;99.90